sensor_id;sensor_type;location;lat;lon;timestamp;P1;durP1;ratioP1;P2;durP2;ratioP2
71360;SDS011;59166;48.908;1.870;2023-08-24T00:02:23;9.17;;;3.70;;
71360;SDS011;59166;48.908;1.870;2023-08-24T00:07:24;10.35;;;4.00;;
71360;SDS011;59166;48.908;1.870;2023-08-24T00:12:24;8.57;;;3.80;;
71360;SDS011;59166;48.908;1.870;2023-08-24T00:17:26;12.75;;;4.40;;
71360;SDS011;59166;48.908;1.870;2023-08-24T00:22:27;10.10;;;4.50;;
71360;SDS011;59166;48.908;1.870;2023-08-24T00:27:27;11.23;;;4.53;;
71360;SDS011;59166;48.908;1.870;2023-08-24T00:32:30;9.90;;;4.40;;
71360;SDS011;59166;48.908;1.870;2023-08-24T00:37:30;12.55;;;4.50;;
71360;SDS011;59166;48.908;1.870;2023-08-24T00:42:31;10.40;;;4.77;;
71360;SDS011;59166;48.908;1.870;2023-08-24T00:47:33;10.60;;;4.83;;
71360;SDS011;59166;48.908;1.870;2023-08-24T00:52:34;10.63;;;5.10;;
71360;SDS011;59166;48.908;1.870;2023-08-24T00:57:37;11.43;;;5.18;;
71360;SDS011;59166;48.908;1.870;2023-08-24T01:02:41;10.87;;;4.40;;
71360;SDS011;59166;48.908;1.870;2023-08-24T01:07:41;11.43;;;5.07;;
71360;SDS011;59166;48.908;1.870;2023-08-24T01:12:47;10.33;;;5.23;;
71360;SDS011;59166;48.908;1.870;2023-08-24T01:17:58;9.77;;;4.80;;
71360;SDS011;59166;48.908;1.870;2023-08-24T01:23:07;11.05;;;5.00;;
71360;SDS011;59166;48.908;1.870;2023-08-24T01:28:19;14.00;;;4.50;;
71360;SDS011;59166;48.908;1.870;2023-08-24T01:33:21;11.70;;;4.65;;
71360;SDS011;59166;48.908;1.870;2023-08-24T01:38:22;11.63;;;4.50;;
71360;SDS011;59166;48.908;1.870;2023-08-24T01:43:25;10.18;;;4.50;;
71360;SDS011;59166;48.908;1.870;2023-08-24T01:48:29;10.68;;;4.80;;
71360;SDS011;59166;48.908;1.870;2023-08-24T01:53:31;9.57;;;4.40;;
71360;SDS011;59166;48.908;1.870;2023-08-24T01:58:34;11.25;;;4.70;;
71360;SDS011;59166;48.908;1.870;2023-08-24T02:03:35;13.00;;;4.53;;
71360;SDS011;59166;48.908;1.870;2023-08-24T02:08:35;9.20;;;3.57;;
71360;SDS011;59166;48.908;1.870;2023-08-24T02:13:37;11.80;;;4.07;;
71360;SDS011;59166;48.908;1.870;2023-08-24T02:18:38;10.20;;;4.40;;
71360;SDS011;59166;48.908;1.870;2023-08-24T02:23:39;12.60;;;4.80;;
71360;SDS011;59166;48.908;1.870;2023-08-24T02:28:41;11.52;;;4.63;;
71360;SDS011;59166;48.908;1.870;2023-08-24T02:33:41;10.50;;;4.80;;
71360;SDS011;59166;48.908;1.870;2023-08-24T02:38:42;11.93;;;4.80;;
71360;SDS011;59166;48.908;1.870;2023-08-24T02:43:44;13.00;;;4.90;;
71360;SDS011;59166;48.908;1.870;2023-08-24T02:48:45;11.77;;;4.90;;
71360;SDS011;59166;48.908;1.870;2023-08-24T02:53:45;9.23;;;4.80;;
71360;SDS011;59166;48.908;1.870;2023-08-24T02:58:47;11.95;;;4.75;;
71360;SDS011;59166;48.908;1.870;2023-08-24T03:03:48;9.70;;;4.83;;
71360;SDS011;59166;48.908;1.870;2023-08-24T03:08:49;12.73;;;5.13;;
71360;SDS011;59166;48.908;1.870;2023-08-24T03:13:51;9.87;;;4.40;;
71360;SDS011;59166;48.908;1.870;2023-08-24T03:18:52;10.70;;;5.10;;
71360;SDS011;59166;48.908;1.870;2023-08-24T03:23:52;10.60;;;4.97;;
71360;SDS011;59166;48.908;1.870;2023-08-24T03:28:54;10.07;;;4.80;;
71360;SDS011;59166;48.908;1.870;2023-08-24T03:33:55;12.00;;;4.90;;
71360;SDS011;59166;48.908;1.870;2023-08-24T03:38:55;9.87;;;4.70;;
71360;SDS011;59166;48.908;1.870;2023-08-24T03:43:57;11.80;;;4.80;;
71360;SDS011;59166;48.908;1.870;2023-08-24T03:48:58;9.47;;;4.70;;
71360;SDS011;59166;48.908;1.870;2023-08-24T03:53:59;9.38;;;4.85;;
71360;SDS011;59166;48.908;1.870;2023-08-24T03:59:01;10.50;;;5.20;;
71360;SDS011;59166;48.908;1.870;2023-08-24T04:04:01;10.55;;;4.95;;
71360;SDS011;59166;48.908;1.870;2023-08-24T04:09:03;11.40;;;4.73;;
71360;SDS011;59166;48.908;1.870;2023-08-24T04:14:08;11.48;;;4.88;;
71360;SDS011;59166;48.908;1.870;2023-08-24T04:19:08;9.82;;;5.20;;
71360;SDS011;59166;48.908;1.870;2023-08-24T04:24:09;8.97;;;5.07;;
71360;SDS011;59166;48.908;1.870;2023-08-24T04:29:11;8.87;;;4.80;;
71360;SDS011;59166;48.908;1.870;2023-08-24T04:34:12;10.80;;;5.20;;
71360;SDS011;59166;48.908;1.870;2023-08-24T04:39:12;11.70;;;5.20;;
71360;SDS011;59166;48.908;1.870;2023-08-24T04:44:14;10.90;;;5.18;;
71360;SDS011;59166;48.908;1.870;2023-08-24T04:49:15;9.40;;;4.83;;
71360;SDS011;59166;48.908;1.870;2023-08-24T04:54:16;10.73;;;5.00;;
71360;SDS011;59166;48.908;1.870;2023-08-24T04:59:18;10.07;;;5.00;;
71360;SDS011;59166;48.908;1.870;2023-08-24T05:04:18;9.70;;;4.78;;
71360;SDS011;59166;48.908;1.870;2023-08-24T05:09:19;11.53;;;5.00;;
71360;SDS011;59166;48.908;1.870;2023-08-24T05:14:21;10.77;;;5.20;;
71360;SDS011;59166;48.908;1.870;2023-08-24T05:19:22;8.90;;;4.97;;
71360;SDS011;59166;48.908;1.870;2023-08-24T05:24:22;9.60;;;4.57;;
71360;SDS011;59166;48.908;1.870;2023-08-24T05:29:24;8.80;;;4.57;;
71360;SDS011;59166;48.908;1.870;2023-08-24T05:34:25;12.50;;;5.40;;
71360;SDS011;59166;48.908;1.870;2023-08-24T05:39:26;12.05;;;5.55;;
71360;SDS011;59166;48.908;1.870;2023-08-24T05:44:28;11.50;;;5.47;;
71360;SDS011;59166;48.908;1.870;2023-08-24T05:49:28;10.38;;;5.20;;
71360;SDS011;59166;48.908;1.870;2023-08-24T05:54:30;10.00;;;4.87;;
71360;SDS011;59166;48.908;1.870;2023-08-24T05:59:32;10.00;;;4.90;;
71360;SDS011;59166;48.908;1.870;2023-08-24T06:04:33;10.10;;;4.87;;
71360;SDS011;59166;48.908;1.870;2023-08-24T06:09:34;10.52;;;4.95;;
71360;SDS011;59166;48.908;1.870;2023-08-24T06:14:36;12.30;;;4.80;;
71360;SDS011;59166;48.908;1.870;2023-08-24T06:19:36;12.65;;;5.13;;
71360;SDS011;59166;48.908;1.870;2023-08-24T06:24:37;15.13;;;5.30;;
71360;SDS011;59166;48.908;1.870;2023-08-24T06:29:39;10.63;;;4.80;;
71360;SDS011;59166;48.908;1.870;2023-08-24T06:34:42;10.10;;;5.15;;
71360;SDS011;59166;48.908;1.870;2023-08-24T06:39:43;10.30;;;5.17;;
71360;SDS011;59166;48.908;1.870;2023-08-24T06:44:45;10.27;;;5.53;;
71360;SDS011;59166;48.908;1.870;2023-08-24T06:49:46;9.77;;;5.30;;
71360;SDS011;59166;48.908;1.870;2023-08-24T06:54:46;12.75;;;4.90;;
71360;SDS011;59166;48.908;1.870;2023-08-24T06:59:49;9.30;;;5.00;;
71360;SDS011;59166;48.908;1.870;2023-08-24T07:04:50;10.27;;;5.00;;
71360;SDS011;59166;48.908;1.870;2023-08-24T07:09:51;9.90;;;5.57;;
71360;SDS011;59166;48.908;1.870;2023-08-24T07:14:53;10.80;;;5.45;;
71360;SDS011;59166;48.908;1.870;2023-08-24T07:19:54;12.07;;;5.70;;
71360;SDS011;59166;48.908;1.870;2023-08-24T07:24:54;11.93;;;6.25;;
71360;SDS011;59166;48.908;1.870;2023-08-24T07:29:56;12.30;;;6.50;;
71360;SDS011;59166;48.908;1.870;2023-08-24T07:34:57;12.95;;;6.75;;
71360;SDS011;59166;48.908;1.870;2023-08-24T07:39:58;11.53;;;6.57;;
71360;SDS011;59166;48.908;1.870;2023-08-24T07:45:00;12.63;;;6.70;;
71360;SDS011;59166;48.908;1.870;2023-08-24T07:50:00;12.63;;;6.93;;
71360;SDS011;59166;48.908;1.870;2023-08-24T07:55:01;12.57;;;6.60;;
71360;SDS011;59166;48.908;1.870;2023-08-24T08:00:04;13.02;;;6.30;;
71360;SDS011;59166;48.908;1.870;2023-08-24T08:05:05;12.13;;;6.40;;
71360;SDS011;59166;48.908;1.870;2023-08-24T08:10:07;11.18;;;5.72;;
71360;SDS011;59166;48.908;1.870;2023-08-24T08:15:09;13.05;;;6.32;;
71360;SDS011;59166;48.908;1.870;2023-08-24T08:20:10;11.93;;;5.63;;
71360;SDS011;59166;48.908;1.870;2023-08-24T08:25:14;10.20;;;5.40;;
71360;SDS011;59166;48.908;1.870;2023-08-24T08:30:16;9.77;;;5.30;;
71360;SDS011;59166;48.908;1.870;2023-08-24T08:35:17;11.07;;;5.90;;
71360;SDS011;59166;48.908;1.870;2023-08-24T08:40:17;10.38;;;5.35;;
71360;SDS011;59166;48.908;1.870;2023-08-24T08:45:19;11.10;;;5.80;;
71360;SDS011;59166;48.908;1.870;2023-08-24T08:50:25;11.73;;;5.50;;
71360;SDS011;59166;48.908;1.870;2023-08-24T08:55:25;10.53;;;5.57;;
71360;SDS011;59166;48.908;1.870;2023-08-24T09:00:29;16.23;;;6.90;;
71360;SDS011;59166;48.908;1.870;2023-08-24T09:05:30;11.50;;;6.13;;
71360;SDS011;59166;48.908;1.870;2023-08-24T09:10:32;13.83;;;5.73;;
71360;SDS011;59166;48.908;1.870;2023-08-24T09:15:35;11.35;;;6.53;;
71360;SDS011;59166;48.908;1.870;2023-08-24T09:20:36;16.17;;;9.73;;
71360;SDS011;59166;48.908;1.870;2023-08-24T09:25:42;11.20;;;6.00;;
71360;SDS011;59166;48.908;1.870;2023-08-24T09:30:46;9.60;;;5.30;;
71360;SDS011;59166;48.908;1.870;2023-08-24T09:35:52;9.65;;;5.55;;
71360;SDS011;59166;48.908;1.870;2023-08-24T09:40:53;8.65;;;5.13;;
71360;SDS011;59166;48.908;1.870;2023-08-24T09:45:57;11.93;;;5.20;;
71360;SDS011;59166;48.908;1.870;2023-08-24T09:50:57;9.88;;;4.93;;
71360;SDS011;59166;48.908;1.870;2023-08-24T09:56:03;10.73;;;4.97;;
71360;SDS011;59166;48.908;1.870;2023-08-24T10:01:07;10.68;;;5.18;;
71360;SDS011;59166;48.908;1.870;2023-08-24T10:06:08;9.77;;;5.00;;
71360;SDS011;59166;48.908;1.870;2023-08-24T10:11:12;10.18;;;5.30;;
71360;SDS011;59166;48.908;1.870;2023-08-24T10:16:18;11.15;;;5.38;;
71360;SDS011;59166;48.908;1.870;2023-08-24T10:21:20;10.50;;;5.50;;
71360;SDS011;59166;48.908;1.870;2023-08-24T10:26:23;10.85;;;5.32;;
71360;SDS011;59166;48.908;1.870;2023-08-24T10:31:25;12.35;;;5.00;;
71360;SDS011;59166;48.908;1.870;2023-08-24T10:36:28;11.03;;;5.30;;
71360;SDS011;59166;48.908;1.870;2023-08-24T10:41:28;10.60;;;4.93;;
71360;SDS011;59166;48.908;1.870;2023-08-24T10:46:33;15.13;;;4.70;;
71360;SDS011;59166;48.908;1.870;2023-08-24T10:51:42;11.20;;;4.80;;
71360;SDS011;59166;48.908;1.870;2023-08-24T10:56:47;9.53;;;4.70;;
71360;SDS011;59166;48.908;1.870;2023-08-24T11:01:57;10.03;;;4.80;;
71360;SDS011;59166;48.908;1.870;2023-08-24T11:06:58;10.93;;;4.40;;
71360;SDS011;59166;48.908;1.870;2023-08-24T11:12:00;11.00;;;5.03;;
71360;SDS011;59166;48.908;1.870;2023-08-24T11:17:17;10.90;;;5.13;;
71360;SDS011;59166;48.908;1.870;2023-08-24T11:22:19;13.05;;;6.22;;
71360;SDS011;59166;48.908;1.870;2023-08-24T11:27:20;11.95;;;6.15;;
71360;SDS011;59166;48.908;1.870;2023-08-24T11:32:22;11.03;;;6.90;;
71360;SDS011;59166;48.908;1.870;2023-08-24T11:37:23;10.82;;;6.70;;
71360;SDS011;59166;48.908;1.870;2023-08-24T11:42:26;12.63;;;7.03;;
71360;SDS011;59166;48.908;1.870;2023-08-24T11:47:37;10.95;;;6.78;;
71360;SDS011;59166;48.908;1.870;2023-08-24T11:52:39;12.00;;;7.00;;
71360;SDS011;59166;48.908;1.870;2023-08-24T11:57:39;11.20;;;6.82;;
71360;SDS011;59166;48.908;1.870;2023-08-24T12:02:43;11.45;;;6.55;;
71360;SDS011;59166;48.908;1.870;2023-08-24T12:07:44;11.90;;;6.77;;
71360;SDS011;59166;48.908;1.870;2023-08-24T12:12:45;11.85;;;6.50;;
71360;SDS011;59166;48.908;1.870;2023-08-24T12:17:48;10.98;;;6.13;;
71360;SDS011;59166;48.908;1.870;2023-08-24T12:22:52;10.73;;;6.20;;
71360;SDS011;59166;48.908;1.870;2023-08-24T12:28:07;10.90;;;6.20;;
71360;SDS011;59166;48.908;1.870;2023-08-24T12:33:15;10.90;;;5.78;;
71360;SDS011;59166;48.908;1.870;2023-08-24T12:38:21;12.02;;;6.22;;
71360;SDS011;59166;48.908;1.870;2023-08-24T12:43:24;12.03;;;6.60;;
71360;SDS011;59166;48.908;1.870;2023-08-24T12:48:26;13.30;;;6.50;;
71360;SDS011;59166;48.908;1.870;2023-08-24T12:53:26;12.53;;;6.40;;
71360;SDS011;59166;48.908;1.870;2023-08-24T12:58:27;12.65;;;6.20;;
71360;SDS011;59166;48.908;1.870;2023-08-24T13:03:29;12.67;;;6.10;;
71360;SDS011;59166;48.908;1.870;2023-08-24T13:08:30;9.45;;;5.53;;
71360;SDS011;59166;48.908;1.870;2023-08-24T13:13:31;11.37;;;5.97;;
71360;SDS011;59166;48.908;1.870;2023-08-24T13:18:33;10.43;;;5.70;;
71360;SDS011;59166;48.908;1.870;2023-08-24T13:23:33;10.60;;;5.53;;
71360;SDS011;59166;48.908;1.870;2023-08-24T13:28:34;12.18;;;6.07;;
71360;SDS011;59166;48.908;1.870;2023-08-24T13:33:36;12.27;;;5.77;;
71360;SDS011;59166;48.908;1.870;2023-08-24T13:38:37;10.30;;;5.30;;
71360;SDS011;59166;48.908;1.870;2023-08-24T13:43:37;10.50;;;4.90;;
71360;SDS011;59166;48.908;1.870;2023-08-24T13:48:39;10.90;;;4.93;;
71360;SDS011;59166;48.908;1.870;2023-08-24T13:53:40;10.45;;;5.03;;
71360;SDS011;59166;48.908;1.870;2023-08-24T13:58:40;11.43;;;4.70;;
71360;SDS011;59166;48.908;1.870;2023-08-24T14:03:42;11.23;;;4.70;;
71360;SDS011;59166;48.908;1.870;2023-08-24T14:08:43;10.73;;;4.80;;
71360;SDS011;59166;48.908;1.870;2023-08-24T14:13:44;10.85;;;4.55;;
71360;SDS011;59166;48.908;1.870;2023-08-24T14:18:46;8.43;;;4.53;;
71360;SDS011;59166;48.908;1.870;2023-08-24T14:23:47;9.82;;;4.78;;
71360;SDS011;59166;48.908;1.870;2023-08-24T14:28:48;11.37;;;4.73;;
71360;SDS011;59166;48.908;1.870;2023-08-24T14:33:51;9.98;;;4.85;;
71360;SDS011;59166;48.908;1.870;2023-08-24T14:38:52;11.05;;;5.10;;
71360;SDS011;59166;48.908;1.870;2023-08-24T14:43:53;11.00;;;4.90;;
71360;SDS011;59166;48.908;1.870;2023-08-24T14:48:55;8.93;;;4.70;;
71360;SDS011;59166;48.908;1.870;2023-08-24T14:53:55;9.80;;;4.70;;
71360;SDS011;59166;48.908;1.870;2023-08-24T14:58:56;9.33;;;4.50;;
71360;SDS011;59166;48.908;1.870;2023-08-24T15:03:58;10.38;;;4.65;;
71360;SDS011;59166;48.908;1.870;2023-08-24T15:08:59;8.93;;;4.50;;
71360;SDS011;59166;48.908;1.870;2023-08-24T15:14:00;9.93;;;4.57;;
71360;SDS011;59166;48.908;1.870;2023-08-24T15:19:02;9.00;;;4.57;;
71360;SDS011;59166;48.908;1.870;2023-08-24T15:24:02;8.95;;;4.40;;
71360;SDS011;59166;48.908;1.870;2023-08-24T15:29:07;10.48;;;4.53;;
71360;SDS011;59166;48.908;1.870;2023-08-24T15:34:10;9.80;;;4.20;;
71360;SDS011;59166;48.908;1.870;2023-08-24T15:39:10;9.25;;;4.10;;
71360;SDS011;59166;48.908;1.870;2023-08-24T15:44:11;8.37;;;4.20;;
71360;SDS011;59166;48.908;1.870;2023-08-24T15:49:14;8.90;;;4.35;;
71360;SDS011;59166;48.908;1.870;2023-08-24T15:54:15;8.27;;;4.43;;
71360;SDS011;59166;48.908;1.870;2023-08-24T15:59:16;9.75;;;4.35;;
71360;SDS011;59166;48.908;1.870;2023-08-24T16:04:18;8.80;;;4.13;;
71360;SDS011;59166;48.908;1.870;2023-08-24T16:09:19;8.98;;;3.90;;
71360;SDS011;59166;48.908;1.870;2023-08-24T16:14:20;10.00;;;3.83;;
71360;SDS011;59166;48.908;1.870;2023-08-24T16:19:22;8.35;;;3.70;;
71360;SDS011;59166;48.908;1.870;2023-08-24T16:24:22;10.60;;;3.70;;
71360;SDS011;59166;48.908;1.870;2023-08-24T16:29:23;8.20;;;3.58;;
71360;SDS011;59166;48.908;1.870;2023-08-24T16:34:25;10.80;;;3.90;;
71360;SDS011;59166;48.908;1.870;2023-08-24T16:39:26;10.10;;;3.97;;
71360;SDS011;59166;48.908;1.870;2023-08-24T16:44:26;7.90;;;3.77;;
71360;SDS011;59166;48.908;1.870;2023-08-24T16:49:28;10.60;;;3.73;;
71360;SDS011;59166;48.908;1.870;2023-08-24T16:54:29;9.50;;;3.72;;
71360;SDS011;59166;48.908;1.870;2023-08-24T16:59:30;8.35;;;3.67;;
71360;SDS011;59166;48.908;1.870;2023-08-24T17:04:32;7.53;;;3.73;;
71360;SDS011;59166;48.908;1.870;2023-08-24T17:09:33;7.88;;;3.50;;
71360;SDS011;59166;48.908;1.870;2023-08-24T17:14:34;7.90;;;3.73;;
71360;SDS011;59166;48.908;1.870;2023-08-24T17:19:36;8.90;;;3.60;;
71360;SDS011;59166;48.908;1.870;2023-08-24T17:24:36;8.37;;;4.00;;
71360;SDS011;59166;48.908;1.870;2023-08-24T17:29:37;6.93;;;3.70;;
71360;SDS011;59166;48.908;1.870;2023-08-24T17:34:39;9.20;;;3.67;;
71360;SDS011;59166;48.908;1.870;2023-08-24T17:39:40;7.65;;;3.75;;
71360;SDS011;59166;48.908;1.870;2023-08-24T17:44:41;8.70;;;3.90;;
71360;SDS011;59166;48.908;1.870;2023-08-24T17:49:43;7.43;;;3.70;;
71360;SDS011;59166;48.908;1.870;2023-08-24T17:54:44;9.87;;;3.80;;
71360;SDS011;59166;48.908;1.870;2023-08-24T17:59:44;9.65;;;3.90;;
71360;SDS011;59166;48.908;1.870;2023-08-24T18:04:46;9.03;;;3.80;;
71360;SDS011;59166;48.908;1.870;2023-08-24T18:09:47;8.45;;;3.90;;
71360;SDS011;59166;48.908;1.870;2023-08-24T18:14:48;7.07;;;3.70;;
71360;SDS011;59166;48.908;1.870;2023-08-24T18:19:50;7.20;;;3.80;;
71360;SDS011;59166;48.908;1.870;2023-08-24T18:24:50;9.13;;;3.70;;
71360;SDS011;59166;48.908;1.870;2023-08-24T18:29:52;8.60;;;3.88;;
71360;SDS011;59166;48.908;1.870;2023-08-24T18:34:54;8.57;;;3.80;;
71360;SDS011;59166;48.908;1.870;2023-08-24T18:39:55;9.23;;;3.83;;
71360;SDS011;59166;48.908;1.870;2023-08-24T18:44:55;10.63;;;4.13;;
71360;SDS011;59166;48.908;1.870;2023-08-24T18:49:58;8.95;;;4.20;;
71360;SDS011;59166;48.908;1.870;2023-08-24T18:54:58;8.13;;;4.10;;
71360;SDS011;59166;48.908;1.870;2023-08-24T18:59:59;8.50;;;4.10;;
71360;SDS011;59166;48.908;1.870;2023-08-24T19:05:01;9.97;;;4.20;;
71360;SDS011;59166;48.908;1.870;2023-08-24T19:10:01;9.40;;;4.25;;
71360;SDS011;59166;48.908;1.870;2023-08-24T19:15:02;8.30;;;4.10;;
71360;SDS011;59166;48.908;1.870;2023-08-24T19:20:05;7.60;;;4.07;;
71360;SDS011;59166;48.908;1.870;2023-08-24T19:25:07;10.45;;;4.40;;
71360;SDS011;59166;48.908;1.870;2023-08-24T19:30:08;8.77;;;4.30;;
71360;SDS011;59166;48.908;1.870;2023-08-24T19:35:11;8.82;;;4.30;;
71360;SDS011;59166;48.908;1.870;2023-08-24T19:40:11;9.35;;;4.55;;
71360;SDS011;59166;48.908;1.870;2023-08-24T19:45:12;12.10;;;4.50;;
71360;SDS011;59166;48.908;1.870;2023-08-24T19:50:14;8.57;;;4.57;;
71360;SDS011;59166;48.908;1.870;2023-08-24T19:55:15;11.70;;;4.50;;
71360;SDS011;59166;48.908;1.870;2023-08-24T20:00:16;8.85;;;4.22;;
71360;SDS011;59166;48.908;1.870;2023-08-24T20:05:18;8.03;;;4.23;;
71360;SDS011;59166;48.908;1.870;2023-08-24T20:10:19;8.93;;;4.47;;
71360;SDS011;59166;48.908;1.870;2023-08-24T20:15:19;10.83;;;4.40;;
71360;SDS011;59166;48.908;1.870;2023-08-24T20:20:22;9.93;;;4.30;;
71360;SDS011;59166;48.908;1.870;2023-08-24T20:25:22;8.60;;;4.03;;
71360;SDS011;59166;48.908;1.870;2023-08-24T20:30:23;10.30;;;4.30;;
71360;SDS011;59166;48.908;1.870;2023-08-24T20:35:25;9.90;;;4.50;;
71360;SDS011;59166;48.908;1.870;2023-08-24T20:40:26;8.63;;;4.22;;
71360;SDS011;59166;48.908;1.870;2023-08-24T20:45:27;9.17;;;4.23;;
71360;SDS011;59166;48.908;1.870;2023-08-24T20:50:29;8.75;;;3.85;;
71360;SDS011;59166;48.908;1.870;2023-08-24T20:55:30;8.97;;;4.03;;
71360;SDS011;59166;48.908;1.870;2023-08-24T21:00:31;7.40;;;3.78;;
71360;SDS011;59166;48.908;1.870;2023-08-24T21:05:33;8.90;;;4.13;;
71360;SDS011;59166;48.908;1.870;2023-08-24T21:10:34;8.55;;;4.00;;
71360;SDS011;59166;48.908;1.870;2023-08-24T21:15:35;9.60;;;3.92;;
71360;SDS011;59166;48.908;1.870;2023-08-24T21:20:37;8.27;;;4.20;;
71360;SDS011;59166;48.908;1.870;2023-08-24T21:25:37;8.98;;;4.00;;
71360;SDS011;59166;48.908;1.870;2023-08-24T21:30:38;8.30;;;4.23;;
71360;SDS011;59166;48.908;1.870;2023-08-24T21:35:40;8.00;;;4.00;;
71360;SDS011;59166;48.908;1.870;2023-08-24T21:40:41;8.23;;;4.05;;
71360;SDS011;59166;48.908;1.870;2023-08-24T21:45:41;7.43;;;4.00;;
71360;SDS011;59166;48.908;1.870;2023-08-24T21:50:43;7.55;;;3.83;;
71360;SDS011;59166;48.908;1.870;2023-08-24T21:55:45;8.03;;;4.30;;
71360;SDS011;59166;48.908;1.870;2023-08-24T22:00:57;8.00;;;4.07;;
71360;SDS011;59166;48.908;1.870;2023-08-24T22:06:02;8.32;;;4.20;;
71360;SDS011;59166;48.908;1.870;2023-08-24T22:11:03;7.73;;;4.03;;
71360;SDS011;59166;48.908;1.870;2023-08-24T22:16:04;8.82;;;4.30;;
71360;SDS011;59166;48.908;1.870;2023-08-24T22:21:06;8.50;;;4.00;;
71360;SDS011;59166;48.908;1.870;2023-08-24T22:26:06;8.95;;;4.22;;
71360;SDS011;59166;48.908;1.870;2023-08-24T22:31:07;8.57;;;4.30;;
71360;SDS011;59166;48.908;1.870;2023-08-24T22:36:09;9.00;;;4.03;;
71360;SDS011;59166;48.908;1.870;2023-08-24T22:41:10;10.00;;;4.10;;
71360;SDS011;59166;48.908;1.870;2023-08-24T22:46:11;7.93;;;3.95;;
71360;SDS011;59166;48.908;1.870;2023-08-24T22:51:13;11.90;;;4.23;;
71360;SDS011;59166;48.908;1.870;2023-08-24T22:56:13;8.82;;;4.15;;
71360;SDS011;59166;48.908;1.870;2023-08-24T23:01:14;8.53;;;4.10;;
71360;SDS011;59166;48.908;1.870;2023-08-24T23:06:18;7.60;;;3.97;;
71360;SDS011;59166;48.908;1.870;2023-08-24T23:11:20;9.55;;;3.92;;
71360;SDS011;59166;48.908;1.870;2023-08-24T23:16:20;9.30;;;4.20;;
71360;SDS011;59166;48.908;1.870;2023-08-24T23:21:22;8.73;;;4.03;;
71360;SDS011;59166;48.908;1.870;2023-08-24T23:26:23;8.53;;;4.40;;
71360;SDS011;59166;48.908;1.870;2023-08-24T23:31:24;8.30;;;3.95;;
71360;SDS011;59166;48.908;1.870;2023-08-24T23:36:26;8.97;;;4.40;;
71360;SDS011;59166;48.908;1.870;2023-08-24T23:41:26;8.43;;;4.40;;
71360;SDS011;59166;48.908;1.870;2023-08-24T23:46:28;7.38;;;4.03;;
71360;SDS011;59166;48.908;1.870;2023-08-24T23:51:30;8.70;;;4.20;;
71360;SDS011;59166;48.908;1.870;2023-08-24T23:56:30;7.70;;;4.10;;
